createdAt,value
2022-10-21T00:00:45.634Z,10.66
2022-10-21T00:01:45.620Z,10.65
2022-10-21T00:02:45.587Z,10.66
2022-10-21T00:03:45.584Z,10.68
2022-10-21T00:04:45.586Z,10.70
2022-10-21T00:05:45.569Z,10.68
2022-10-21T00:06:45.558Z,10.71
2022-10-21T00:07:45.543Z,10.70
2022-10-21T00:08:45.570Z,10.73
2022-10-21T00:09:45.539Z,10.73
2022-10-21T00:10:45.523Z,10.73
2022-10-21T00:11:45.505Z,10.74
2022-10-21T00:12:45.480Z,10.74
2022-10-21T00:13:45.478Z,10.76
2022-10-21T00:14:45.468Z,10.76
2022-10-21T00:15:45.467Z,10.74
2022-10-21T00:16:45.435Z,10.74
2022-10-21T00:17:45.452Z,10.73
2022-10-21T00:18:45.421Z,10.74
2022-10-21T00:19:45.417Z,10.74
2022-10-21T00:20:45.422Z,10.74
2022-10-21T00:21:45.379Z,10.76
2022-10-21T00:22:45.395Z,10.76
2022-10-21T00:23:45.367Z,10.76
2022-10-21T00:24:45.348Z,10.76
2022-10-21T00:25:45.340Z,10.77
2022-10-21T00:26:45.339Z,10.77
2022-10-21T00:27:45.322Z,10.76
2022-10-21T00:28:45.322Z,10.77
2022-10-21T00:29:45.304Z,10.78
2022-10-21T00:30:45.288Z,10.80
2022-10-21T00:31:45.276Z,10.80
2022-10-21T00:32:45.271Z,10.84
2022-10-21T00:33:51.804Z,10.81
2022-10-21T00:34:45.237Z,10.83
2022-10-21T00:35:45.238Z,10.86
2022-10-21T00:36:45.219Z,10.88
2022-10-21T00:37:45.228Z,10.89
2022-10-21T00:38:45.202Z,10.94
2022-10-21T00:39:45.205Z,10.94
2022-10-21T00:40:45.199Z,10.96
2022-10-21T00:41:45.161Z,10.98
2022-10-21T00:42:46.731Z,10.98
2022-10-21T00:43:45.141Z,11.01
2022-10-21T00:44:45.124Z,11.02
2022-10-21T00:45:45.128Z,11.02
2022-10-21T00:46:45.103Z,11.06
2022-10-21T00:47:45.184Z,11.06
2022-10-21T00:48:45.088Z,11.06
2022-10-21T00:49:45.075Z,11.07
2022-10-21T00:50:45.074Z,11.07
2022-10-21T00:51:45.060Z,11.03
2022-10-21T00:52:45.040Z,11.06
2022-10-21T00:53:45.058Z,11.09
2022-10-21T00:54:45.015Z,11.09
2022-10-21T00:55:45.002Z,11.09
2022-10-21T00:56:45.077Z,11.09
2022-10-21T00:57:45.018Z,11.10
2022-10-21T00:58:44.987Z,11.10
2022-10-21T00:59:44.983Z,11.11
2022-10-21T01:00:44.994Z,11.11
2022-10-21T01:01:44.940Z,11.14
2022-10-21T01:02:44.955Z,11.14
2022-10-21T01:03:44.931Z,11.13
2022-10-21T01:04:44.903Z,11.14
2022-10-21T01:05:44.943Z,11.16
2022-10-21T01:06:44.878Z,11.16
2022-10-21T01:07:45.083Z,11.17
2022-10-21T01:08:44.901Z,11.20
2022-10-21T01:09:44.861Z,11.21
2022-10-21T01:10:44.866Z,11.25
2022-10-21T01:11:44.837Z,11.25
2022-10-21T01:12:44.820Z,11.28
2022-10-21T01:13:44.805Z,11.29
2022-10-21T01:14:44.814Z,11.29
2022-10-21T01:15:44.808Z,11.29
2022-10-21T01:16:47.383Z,11.29
2022-10-21T01:17:45.820Z,11.31
2022-10-21T01:18:44.757Z,11.31
2022-10-21T01:19:44.749Z,11.31
2022-10-21T01:20:44.730Z,11.31
2022-10-21T01:21:44.726Z,11.29
2022-10-21T01:22:44.703Z,11.28
2022-10-21T01:23:44.718Z,11.28
2022-10-21T01:24:44.672Z,11.25
2022-10-21T01:25:44.705Z,11.21
2022-10-21T01:26:44.654Z,11.21
2022-10-21T01:27:44.648Z,11.21
2022-10-21T01:28:44.636Z,11.20
2022-10-21T01:29:44.662Z,11.17
2022-10-21T01:30:44.622Z,11.14
2022-10-21T01:31:44.604Z,11.19
2022-10-21T01:32:44.607Z,11.20
2022-10-21T01:33:44.577Z,11.20
2022-10-21T01:34:44.571Z,11.20
2022-10-21T01:35:44.569Z,11.17
2022-10-21T01:36:44.561Z,11.16
2022-10-21T01:37:44.687Z,11.13
2022-10-21T01:38:44.520Z,11.13
2022-10-21T01:39:44.514Z,11.10
2022-10-21T01:40:44.497Z,11.11
2022-10-21T01:41:44.486Z,11.11
2022-10-21T01:42:44.501Z,11.13
2022-10-21T01:43:44.471Z,11.10
2022-10-21T01:44:44.457Z,11.11
2022-10-21T01:45:44.463Z,11.14
2022-10-21T01:46:44.436Z,11.13
2022-10-21T01:47:44.439Z,11.13
2022-10-21T01:48:44.415Z,11.13
2022-10-21T01:49:44.413Z,11.11
2022-10-21T01:50:44.406Z,11.10
2022-10-21T01:51:44.391Z,11.09
2022-10-21T01:52:44.374Z,11.09
2022-10-21T01:53:44.401Z,11.07
2022-10-21T01:54:44.348Z,11.06
2022-10-21T01:55:44.364Z,11.07
2022-10-21T01:56:44.324Z,11.13
2022-10-21T01:57:44.313Z,11.24
2022-10-21T01:58:44.315Z,11.25
2022-10-21T01:59:44.316Z,11.24
2022-10-21T02:00:44.317Z,11.20
2022-10-21T02:01:44.273Z,11.16
2022-10-21T02:02:44.257Z,11.14
2022-10-21T02:03:44.272Z,11.11
2022-10-21T02:04:44.262Z,11.11
2022-10-21T02:05:44.221Z,11.11
2022-10-21T02:06:44.218Z,11.10
2022-10-21T02:07:44.203Z,11.07
2022-10-21T02:08:44.279Z,11.06
2022-10-21T02:09:44.193Z,11.06
2022-10-21T02:10:44.163Z,11.02
2022-10-21T02:11:44.168Z,11.02
2022-10-21T02:12:44.145Z,11.02
2022-10-21T02:13:44.169Z,10.99
2022-10-21T02:14:44.136Z,10.99
2022-10-21T02:15:44.115Z,10.99
2022-10-21T02:16:44.140Z,10.98
2022-10-21T02:17:44.100Z,11.02
2022-10-21T02:18:44.088Z,11.06
2022-10-21T02:19:44.094Z,11.06
2022-10-21T02:20:44.062Z,11.07
2022-10-21T02:21:44.043Z,11.10
2022-10-21T02:22:44.030Z,11.10
2022-10-21T02:23:44.027Z,11.11
2022-10-21T02:24:44.021Z,11.11
2022-10-21T02:25:44.016Z,11.11
2022-10-21T02:26:43.991Z,11.11
2022-10-21T02:27:44.020Z,11.13
2022-10-21T02:28:43.979Z,11.13
2022-10-21T02:29:43.951Z,11.16
2022-10-21T02:30:43.958Z,11.14
2022-10-21T02:31:43.958Z,11.14
2022-10-21T02:32:43.922Z,11.14
2022-10-21T02:33:43.917Z,11.17
2022-10-21T02:34:43.902Z,11.17
2022-10-21T02:35:43.913Z,11.17
2022-10-21T02:36:43.873Z,11.19
2022-10-21T02:37:43.870Z,11.21
2022-10-21T02:38:43.850Z,11.21
2022-10-21T02:39:43.868Z,11.21
2022-10-21T02:40:43.844Z,11.19
2022-10-21T02:41:43.825Z,11.21
2022-10-21T02:42:43.812Z,11.20
2022-10-21T02:43:43.813Z,11.25
2022-10-21T02:44:43.796Z,11.25
2022-10-21T02:45:43.807Z,11.27
2022-10-21T02:46:43.777Z,11.29
2022-10-21T02:47:43.760Z,11.31
2022-10-21T02:48:43.742Z,11.34
2022-10-21T02:49:43.736Z,11.34
2022-10-21T02:50:43.727Z,11.35
2022-10-21T02:51:43.721Z,11.36
2022-10-21T02:52:43.714Z,11.38
2022-10-21T02:53:43.698Z,11.38
2022-10-21T02:54:43.687Z,11.39
2022-10-21T02:55:43.676Z,11.44
2022-10-21T02:56:43.653Z,11.47
2022-10-21T02:57:43.652Z,11.49
2022-10-21T02:58:43.636Z,11.49
2022-10-21T02:59:43.615Z,11.49
2022-10-21T03:00:43.693Z,11.52
2022-10-21T03:01:43.620Z,11.53
2022-10-21T03:02:43.613Z,11.52
2022-10-21T03:03:43.581Z,11.52
2022-10-21T03:04:43.557Z,11.50
2022-10-21T03:05:43.558Z,11.50
2022-10-21T03:06:43.555Z,11.49
2022-10-21T03:07:43.534Z,11.46
2022-10-21T03:08:43.534Z,11.44
2022-10-21T03:09:43.576Z,11.43
2022-10-21T03:10:43.489Z,11.39
2022-10-21T03:11:43.505Z,11.38
2022-10-21T03:12:43.469Z,11.36
2022-10-21T03:13:43.483Z,11.36
2022-10-21T03:14:43.443Z,11.35
2022-10-21T03:15:43.435Z,11.34
2022-10-21T03:16:43.449Z,11.32
2022-10-21T03:17:43.423Z,11.29
2022-10-21T03:18:43.406Z,11.28
2022-10-21T03:19:43.400Z,11.28
2022-10-21T03:20:43.386Z,11.25
2022-10-21T03:21:43.388Z,11.25
2022-10-21T03:22:43.366Z,11.27
2022-10-21T03:23:43.362Z,11.28
2022-10-21T03:24:43.338Z,11.27
2022-10-21T03:25:43.330Z,11.27
2022-10-21T03:26:43.361Z,11.25
2022-10-21T03:27:43.314Z,11.24
2022-10-21T03:28:43.295Z,11.21
2022-10-21T03:29:43.294Z,11.21
2022-10-21T03:30:43.275Z,11.17
2022-10-21T03:31:43.319Z,11.17
2022-10-21T03:32:43.249Z,11.14
2022-10-21T03:33:43.251Z,11.14
2022-10-21T03:34:43.235Z,11.14
2022-10-21T03:35:43.227Z,11.10
2022-10-21T03:36:43.240Z,11.07
2022-10-21T03:37:43.217Z,11.01
2022-10-21T03:38:43.211Z,10.98
2022-10-21T03:39:43.220Z,10.95
2022-10-21T03:40:43.163Z,10.92
2022-10-21T03:41:43.191Z,10.89
2022-10-21T03:42:43.182Z,10.91
2022-10-21T03:43:43.153Z,10.89
2022-10-21T03:44:43.156Z,10.88
2022-10-21T03:45:43.162Z,10.86
2022-10-21T03:46:43.113Z,10.84
2022-10-21T03:47:43.143Z,10.86
2022-10-21T03:48:43.096Z,10.86
2022-10-21T03:49:43.084Z,10.88
2022-10-21T03:50:43.049Z,10.88
2022-10-21T03:51:43.112Z,10.89
2022-10-21T03:52:43.033Z,10.88
2022-10-21T03:53:43.930Z,10.89
2022-10-21T03:54:43.036Z,10.89
2022-10-21T03:55:42.999Z,10.88
2022-10-21T03:56:43.000Z,10.86
2022-10-21T03:57:43.364Z,10.84
2022-10-21T03:58:43.010Z,10.83
2022-10-21T03:59:42.953Z,10.78
2022-10-21T04:00:42.940Z,10.78
2022-10-21T04:01:42.971Z,10.77
2022-10-21T04:02:42.929Z,10.80
2022-10-21T04:03:42.910Z,10.77
2022-10-21T04:04:42.894Z,10.77
2022-10-21T04:05:42.896Z,10.77
2022-10-21T04:06:42.894Z,10.76
2022-10-21T04:07:42.873Z,10.76
2022-10-21T04:08:42.909Z,10.74
2022-10-21T04:09:42.841Z,10.73
2022-10-21T04:10:42.893Z,10.71
2022-10-21T04:11:42.859Z,10.68
2022-10-21T04:12:42.807Z,10.65
2022-10-21T04:13:42.791Z,10.65
2022-10-21T04:14:42.791Z,10.65
2022-10-21T04:15:42.774Z,10.65
2022-10-21T04:16:42.779Z,10.63
2022-10-21T04:17:42.751Z,10.65
2022-10-21T04:18:42.737Z,10.68
2022-10-21T04:19:42.733Z,10.71
2022-10-21T04:20:42.732Z,10.73
2022-10-21T04:21:42.720Z,10.76
2022-10-21T04:22:42.694Z,10.77
2022-10-21T04:23:42.684Z,10.78
2022-10-21T04:24:42.677Z,10.78
2022-10-21T04:25:42.671Z,10.78
2022-10-21T04:26:42.665Z,10.80
2022-10-21T04:27:42.642Z,10.81
2022-10-21T04:28:42.631Z,10.81
2022-10-21T04:29:42.619Z,10.80
2022-10-21T04:30:42.606Z,10.83
2022-10-21T04:31:42.639Z,10.83
2022-10-21T04:32:42.651Z,10.80
2022-10-21T04:33:42.582Z,10.81
2022-10-21T04:34:42.569Z,10.81
2022-10-21T04:35:42.554Z,10.83
2022-10-21T04:36:42.572Z,10.86
2022-10-21T04:37:42.539Z,10.86
2022-10-21T04:38:42.518Z,10.89
2022-10-21T04:39:42.517Z,10.88
2022-10-21T04:40:42.489Z,10.88
2022-10-21T04:41:42.494Z,10.86
2022-10-21T04:42:42.469Z,10.84
2022-10-21T04:43:42.469Z,10.84
2022-10-21T04:44:42.455Z,10.83
2022-10-21T04:45:42.446Z,10.84
2022-10-21T04:46:42.448Z,10.84
2022-10-21T04:47:42.431Z,10.81
2022-10-21T04:48:42.404Z,10.80
2022-10-21T04:49:42.396Z,10.80
2022-10-21T04:50:42.396Z,10.81
2022-10-21T04:51:42.403Z,10.81
2022-10-21T04:52:42.362Z,10.81
2022-10-21T04:53:42.355Z,10.80
2022-10-21T04:54:42.340Z,10.77
2022-10-21T04:55:42.327Z,10.76
2022-10-21T04:56:42.329Z,10.73
2022-10-21T04:57:42.320Z,10.73
2022-10-21T04:58:42.290Z,10.71
2022-10-21T04:59:42.290Z,10.71
2022-10-21T05:00:42.295Z,10.70
2022-10-21T05:01:42.299Z,10.73
2022-10-21T05:02:42.527Z,10.73
2022-10-21T05:03:42.238Z,10.73
2022-10-21T05:04:42.269Z,10.70
2022-10-21T05:05:42.229Z,10.65
2022-10-21T05:06:42.243Z,10.62
2022-10-21T05:07:42.190Z,10.60
2022-10-21T05:08:42.246Z,10.58
2022-10-21T05:09:42.174Z,10.58
2022-10-21T05:10:42.155Z,10.55
2022-10-21T05:11:42.182Z,10.56
2022-10-21T05:12:42.144Z,10.55
2022-10-21T05:13:42.144Z,10.53
2022-10-21T05:14:42.112Z,10.53
2022-10-21T05:15:42.110Z,10.51
2022-10-21T05:16:42.099Z,10.47
2022-10-21T05:17:42.213Z,10.47
2022-10-21T05:18:42.073Z,10.46
2022-10-21T05:19:42.067Z,10.46
2022-10-21T05:20:42.047Z,10.44
2022-10-21T05:21:42.050Z,10.43
2022-10-21T05:22:42.254Z,10.42
2022-10-21T05:23:43.935Z,10.43
2022-10-21T05:24:42.003Z,10.40
2022-10-21T05:25:42.000Z,10.39
2022-10-21T05:26:41.978Z,10.36
2022-10-21T05:27:41.988Z,10.37
2022-10-21T05:28:41.957Z,10.36
2022-10-21T05:29:42.002Z,10.33
2022-10-21T05:31:41.921Z,10.33
2022-10-21T05:32:42.164Z,10.33
2022-10-21T05:33:41.930Z,10.33
2022-10-21T05:34:41.896Z,10.33
2022-10-21T05:35:41.894Z,10.33
2022-10-21T05:36:41.871Z,10.33
2022-10-21T05:37:41.875Z,10.33
2022-10-21T05:38:41.863Z,10.32
2022-10-21T05:40:41.830Z,10.30
2022-10-21T05:41:44.137Z,10.30
2022-10-21T05:42:41.880Z,10.28
2022-10-21T05:43:41.792Z,10.25
2022-10-21T05:44:41.794Z,10.24
2022-10-21T05:45:41.797Z,10.24
2022-10-21T05:46:41.759Z,10.24
2022-10-21T05:47:41.770Z,10.21
2022-10-21T05:48:41.830Z,10.19
2022-10-21T05:49:41.739Z,10.19
2022-10-21T05:50:41.720Z,10.18
2022-10-21T05:51:41.711Z,10.18
2022-10-21T05:52:41.830Z,10.17
2022-10-21T05:53:41.695Z,10.17
2022-10-21T05:54:41.674Z,10.14
2022-10-21T05:55:41.675Z,10.14
2022-10-21T05:56:41.667Z,10.14
2022-10-21T05:57:41.751Z,10.12
2022-10-21T05:58:41.626Z,10.10
2022-10-21T05:59:41.615Z,10.10
2022-10-21T06:00:41.656Z,10.10
2022-10-21T06:01:41.613Z,10.09
2022-10-21T06:02:41.868Z,10.10
2022-10-21T06:03:41.571Z,10.12
2022-10-21T06:04:41.571Z,10.10
2022-10-21T06:05:41.584Z,10.14
2022-10-21T06:06:41.553Z,10.14
2022-10-21T06:07:41.849Z,10.15
2022-10-21T06:08:41.590Z,10.15
2022-10-21T06:09:41.514Z,10.17
2022-10-21T06:10:41.495Z,10.19
2022-10-21T06:11:41.484Z,10.19
2022-10-21T06:12:41.494Z,10.21
2022-10-21T06:13:41.460Z,10.24
2022-10-21T06:14:41.449Z,10.26
2022-10-21T06:15:41.457Z,10.28
2022-10-21T06:16:41.429Z,10.28
2022-10-21T06:17:41.621Z,10.32
2022-10-21T06:18:41.411Z,10.34
2022-10-21T06:19:44.936Z,10.36
2022-10-21T06:20:41.387Z,10.37
2022-10-21T06:21:41.377Z,10.37
2022-10-21T06:22:41.367Z,10.39
2022-10-21T06:23:41.389Z,10.40
2022-10-21T06:24:41.337Z,10.42
2022-10-21T06:25:41.337Z,10.43
2022-10-21T06:26:41.352Z,10.46
2022-10-21T06:27:41.545Z,10.47
2022-10-21T06:28:41.320Z,10.52
2022-10-21T06:29:41.292Z,10.52
2022-10-21T06:30:41.274Z,10.53
2022-10-21T06:31:41.311Z,10.53
2022-10-21T06:32:41.261Z,10.55
2022-10-21T06:33:41.275Z,10.55
2022-10-21T06:34:47.798Z,10.56
2022-10-21T06:35:41.214Z,10.56
2022-10-21T06:36:41.197Z,10.60
2022-10-21T06:37:41.425Z,10.60
2022-10-21T06:38:41.185Z,10.62
2022-10-21T06:39:41.218Z,10.62
2022-10-21T06:40:41.163Z,10.65
2022-10-21T06:41:41.153Z,10.65
2022-10-21T06:42:41.153Z,10.65
2022-10-21T06:43:41.130Z,10.63
2022-10-21T06:44:41.130Z,10.65
2022-10-21T06:45:41.114Z,10.65
2022-10-21T06:46:41.096Z,10.68
2022-10-21T06:47:41.673Z,10.70
2022-10-21T06:48:41.080Z,10.70
2022-10-21T06:49:41.059Z,10.70
2022-10-21T06:50:41.063Z,10.71
2022-10-21T06:51:41.040Z,10.73
2022-10-21T06:52:41.021Z,10.76
2022-10-21T06:53:41.023Z,10.77
2022-10-21T06:54:41.007Z,10.81
2022-10-21T06:55:40.995Z,10.84
2022-10-21T06:56:41.016Z,10.88
2022-10-21T06:57:41.203Z,10.91
2022-10-21T06:58:40.960Z,10.92
2022-10-21T06:59:40.965Z,10.95
2022-10-21T07:00:40.950Z,10.96
2022-10-21T07:01:59.242Z,11.01
2022-10-21T07:02:41.265Z,11.06
2022-10-21T07:03:40.906Z,11.09
2022-10-21T07:04:40.909Z,11.11
2022-10-21T07:05:40.879Z,11.13
2022-10-21T07:06:40.892Z,11.17
2022-10-21T07:07:41.274Z,11.19
2022-10-21T07:08:54.002Z,11.21
2022-10-21T07:09:40.881Z,11.25
2022-10-21T07:10:40.827Z,11.27
2022-10-21T07:11:40.835Z,11.31
2022-10-21T07:12:40.811Z,11.34
2022-10-21T07:13:40.803Z,11.35
2022-10-21T07:14:40.784Z,11.36
2022-10-21T07:15:40.771Z,11.39
2022-10-21T07:16:40.773Z,11.41
2022-10-21T07:17:41.111Z,11.39
2022-10-21T07:18:42.609Z,11.38
2022-10-21T07:19:40.730Z,11.39
2022-10-21T07:20:40.740Z,11.38
2022-10-21T07:21:40.712Z,11.39
2022-10-21T07:22:40.748Z,11.38
2022-10-21T07:23:40.694Z,11.41
2022-10-21T07:24:40.667Z,11.43
2022-10-21T07:25:40.673Z,11.41
2022-10-21T07:26:40.668Z,11.43
2022-10-21T07:27:42.451Z,11.44
2022-10-21T07:28:40.635Z,11.46
2022-10-21T07:29:40.621Z,11.49
2022-10-21T07:30:40.630Z,11.49
2022-10-21T07:31:40.609Z,11.50
2022-10-21T07:32:40.586Z,11.53
2022-10-21T07:33:40.604Z,11.56
2022-10-21T07:34:40.571Z,11.59
2022-10-21T07:35:40.554Z,11.62
2022-10-21T07:36:40.566Z,11.68
2022-10-21T07:37:40.921Z,11.71
2022-10-21T07:38:40.528Z,11.77
2022-10-21T07:39:40.534Z,11.80
2022-10-21T07:40:40.499Z,11.85
2022-10-21T07:41:40.496Z,11.87
2022-10-21T07:42:40.476Z,11.93
2022-10-21T07:43:40.474Z,11.96
2022-10-21T07:44:40.463Z,12.02
2022-10-21T07:45:40.471Z,12.05
2022-10-21T07:46:40.428Z,12.08
2022-10-21T07:47:40.721Z,12.06
2022-10-21T07:48:40.429Z,12.08
2022-10-21T07:49:40.410Z,12.11
2022-10-21T07:50:40.412Z,12.12
2022-10-21T07:51:40.394Z,12.15
2022-10-21T07:52:43.760Z,12.19
2022-10-21T07:53:40.479Z,12.21
2022-10-21T07:54:40.344Z,12.26
2022-10-21T07:55:40.338Z,12.29
2022-10-21T07:56:40.353Z,12.31
2022-10-21T07:57:40.321Z,12.33
2022-10-21T07:58:40.307Z,12.37
2022-10-21T07:59:40.295Z,12.38
2022-10-21T08:00:40.378Z,12.41
2022-10-21T08:01:40.550Z,12.44
2022-10-21T08:02:40.602Z,12.48
2022-10-21T08:03:40.249Z,12.49
2022-10-21T08:04:40.252Z,12.51
2022-10-21T08:05:40.244Z,12.54
2022-10-21T08:06:40.220Z,12.57
2022-10-21T08:07:40.231Z,12.57
2022-10-21T08:08:40.240Z,12.62
2022-10-21T08:09:40.194Z,12.64
2022-10-21T08:10:40.209Z,12.66
2022-10-21T08:11:40.166Z,12.67
2022-10-21T08:12:40.683Z,12.66
2022-10-21T08:13:40.149Z,12.67
2022-10-21T08:14:40.140Z,12.69
2022-10-21T08:15:40.127Z,12.69
2022-10-21T08:16:40.105Z,12.70
2022-10-21T08:17:40.121Z,12.71
2022-10-21T08:18:40.113Z,12.75
2022-10-21T08:19:40.089Z,12.78
2022-10-21T08:20:40.078Z,12.79
2022-10-21T08:21:40.057Z,12.81
2022-10-21T08:22:40.456Z,12.81
2022-10-21T08:23:40.093Z,12.81
2022-10-21T08:24:42.324Z,12.81
2022-10-21T08:25:40.007Z,12.82
2022-10-21T08:26:40.022Z,12.87
2022-10-21T08:27:40.029Z,12.89
2022-10-21T08:28:40.007Z,12.89
2022-10-21T08:29:40.243Z,12.95
2022-10-21T08:30:39.997Z,12.96
2022-10-21T08:31:39.972Z,12.99
2022-10-21T08:32:40.311Z,12.97
2022-10-21T08:33:39.957Z,12.97
2022-10-21T08:34:39.925Z,12.95
2022-10-21T08:35:39.911Z,12.95
2022-10-21T08:36:39.896Z,12.96
2022-10-21T08:37:39.903Z,12.99
2022-10-21T08:38:39.871Z,13.00
2022-10-21T08:39:39.971Z,13.04
2022-10-21T08:40:39.852Z,13.06
2022-10-21T08:41:39.855Z,13.06
2022-10-21T08:42:40.126Z,13.09
2022-10-21T08:43:39.834Z,13.12
2022-10-21T08:44:39.814Z,13.14
2022-10-21T08:45:39.793Z,13.21
2022-10-21T08:46:39.805Z,13.25
2022-10-21T08:47:40.054Z,13.27
2022-10-21T08:48:39.748Z,13.27
2022-10-21T08:49:39.749Z,13.30
2022-10-21T08:50:39.729Z,13.30
2022-10-21T08:51:39.765Z,13.29
2022-10-21T08:52:39.716Z,13.30
2022-10-21T08:53:39.710Z,13.30
2022-10-21T08:54:39.693Z,13.32
2022-10-21T08:55:39.711Z,13.29
2022-10-21T08:56:39.681Z,13.29
2022-10-21T08:57:39.899Z,13.25
2022-10-21T08:58:39.644Z,13.24
2022-10-21T08:59:39.648Z,13.24
2022-10-21T09:00:39.631Z,13.21
2022-10-21T09:01:39.656Z,13.20
2022-10-21T09:02:39.648Z,13.18
2022-10-21T09:03:39.598Z,13.15
2022-10-21T09:04:39.588Z,13.14
2022-10-21T09:05:39.567Z,13.12
2022-10-21T09:06:39.575Z,13.09
2022-10-21T09:07:39.984Z,13.07
2022-10-21T09:08:39.586Z,13.03
2022-10-21T09:09:39.531Z,13.02
2022-10-21T09:10:39.515Z,13.00
2022-10-21T09:11:39.539Z,13.00
2022-10-21T09:12:39.506Z,13.00
2022-10-21T09:13:39.483Z,12.97
2022-10-21T09:14:39.474Z,12.97
2022-10-21T09:15:39.467Z,12.96
2022-10-21T09:16:39.454Z,12.95
2022-10-21T09:17:39.728Z,12.95
2022-10-21T09:18:39.430Z,12.92
2022-10-21T09:19:39.445Z,12.89
2022-10-21T09:20:39.417Z,12.87
2022-10-21T09:21:39.391Z,12.85
2022-10-21T09:22:39.412Z,12.88
2022-10-21T09:23:39.390Z,12.93
2022-10-21T09:24:39.361Z,12.95
2022-10-21T09:25:39.371Z,12.95
2022-10-21T09:26:39.342Z,12.93
2022-10-21T09:27:51.778Z,12.97
2022-10-21T09:28:39.346Z,12.97
2022-10-21T09:29:39.305Z,12.97
2022-10-21T09:30:39.318Z,12.96
2022-10-21T09:31:39.291Z,12.97
2022-10-21T09:32:39.278Z,12.99
2022-10-21T09:33:39.285Z,12.97
2022-10-21T09:34:39.255Z,12.99
2022-10-21T09:35:39.252Z,13.00
2022-10-21T09:36:39.231Z,13.14
2022-10-21T09:37:39.433Z,13.22
2022-10-21T09:38:39.228Z,13.32
2022-10-21T09:39:39.195Z,13.38
2022-10-21T09:40:39.194Z,13.38
2022-10-21T09:41:39.182Z,13.40
2022-10-21T09:42:47.909Z,13.41
2022-10-21T09:43:39.188Z,13.43
2022-10-21T09:44:39.187Z,13.43
2022-10-21T09:45:39.149Z,13.46
2022-10-21T09:46:39.150Z,13.44
2022-10-21T09:47:39.132Z,13.41
2022-10-21T09:48:54.042Z,13.41
2022-10-21T09:50:05.919Z,13.40
2022-10-21T09:50:39.124Z,13.41
2022-10-21T09:51:39.083Z,13.41
2022-10-21T09:52:39.447Z,13.44
2022-10-21T09:53:39.046Z,13.44
2022-10-21T09:54:39.051Z,13.47
2022-10-21T09:55:39.050Z,13.51
2022-10-21T09:56:39.031Z,13.55
2022-10-21T09:57:39.021Z,13.61
2022-10-21T09:58:39.007Z,13.65
2022-10-21T09:59:39.045Z,13.73
2022-10-21T10:00:38.983Z,13.80
2022-10-21T10:01:39.025Z,13.84
2022-10-21T10:02:39.220Z,13.84
2022-10-21T10:03:38.931Z,13.89
2022-10-21T10:04:38.957Z,13.94
2022-10-21T10:05:38.930Z,14.01
2022-10-21T10:06:38.913Z,14.09
2022-10-21T10:07:38.883Z,14.17
2022-10-21T10:08:39.011Z,14.21
2022-10-21T10:09:38.888Z,14.32
2022-10-21T10:10:38.862Z,14.42
2022-10-21T10:11:38.854Z,14.47
2022-10-21T10:12:39.098Z,14.54
2022-10-21T10:13:38.883Z,14.54
2022-10-21T10:14:38.837Z,14.54
2022-10-21T10:15:38.810Z,14.62
2022-10-21T10:16:38.803Z,14.65
2022-10-21T10:17:38.797Z,14.65
2022-10-21T10:18:38.784Z,14.67
2022-10-21T10:19:38.793Z,14.69
2022-10-21T10:20:38.778Z,14.72
2022-10-21T10:21:38.747Z,14.72
2022-10-21T10:22:39.087Z,14.72
2022-10-21T10:23:38.724Z,14.75
2022-10-21T10:24:38.709Z,14.80
2022-10-21T10:25:38.746Z,14.86
2022-10-21T10:26:38.694Z,14.98
2022-10-21T10:27:38.703Z,15.02
2022-10-21T10:28:38.745Z,15.03
2022-10-21T10:29:38.684Z,15.03
2022-10-21T10:30:38.710Z,15.13
2022-10-21T10:31:38.671Z,15.17
2022-10-21T10:32:38.909Z,15.23
2022-10-21T10:33:38.629Z,15.23
2022-10-21T10:34:38.615Z,15.23
2022-10-21T10:35:38.595Z,15.21
2022-10-21T10:36:38.640Z,15.19
2022-10-21T10:37:38.647Z,15.20
2022-10-21T10:38:38.553Z,15.13
2022-10-21T10:39:38.561Z,15.11
2022-10-21T10:40:38.551Z,15.11
2022-10-21T10:41:38.581Z,15.12
2022-10-21T10:42:38.798Z,15.12
2022-10-21T10:43:38.517Z,15.15
2022-10-21T10:44:38.530Z,15.21
2022-10-21T10:45:38.479Z,15.26
2022-10-21T10:46:38.663Z,15.27
2022-10-21T10:47:38.748Z,15.28
2022-10-21T10:48:38.503Z,15.26
2022-10-21T10:49:38.457Z,15.24
2022-10-21T10:50:38.435Z,15.26
2022-10-21T10:51:38.442Z,15.27
2022-10-21T10:52:38.434Z,15.36
2022-10-21T10:53:38.419Z,15.38
2022-10-21T10:54:38.410Z,15.36
2022-10-21T10:55:38.397Z,15.36
2022-10-21T10:56:38.389Z,15.36
2022-10-21T10:57:44.466Z,15.33
2022-10-21T10:58:38.401Z,15.31
2022-10-21T10:59:38.340Z,15.30
2022-10-21T11:00:38.341Z,15.31
2022-10-21T11:01:38.393Z,15.51
2022-10-21T11:02:38.310Z,15.54
2022-10-21T11:03:41.239Z,15.56
2022-10-21T11:04:38.301Z,15.56
2022-10-21T11:05:38.310Z,15.57
2022-10-21T11:06:38.282Z,15.57
2022-10-21T11:07:38.730Z,15.56
2022-10-21T11:08:38.288Z,15.57
2022-10-21T11:09:38.232Z,15.56
2022-10-21T11:10:38.226Z,15.54
2022-10-21T11:11:38.232Z,15.61
2022-10-21T11:12:38.226Z,15.63
2022-10-21T11:13:41.927Z,15.60
2022-10-21T11:14:38.182Z,15.60
2022-10-21T11:15:38.157Z,15.59
2022-10-21T11:16:45.065Z,15.61
2022-10-21T11:17:38.569Z,15.63
2022-10-21T11:18:38.125Z,15.63
2022-10-21T11:19:38.120Z,15.61
2022-10-21T11:20:38.141Z,15.63
2022-10-21T11:21:38.095Z,15.64
2022-10-21T11:22:38.095Z,15.64
2022-10-21T11:23:38.066Z,15.64
2022-10-21T11:24:38.076Z,15.64
2022-10-21T11:25:38.063Z,15.67
2022-10-21T11:26:38.053Z,15.70
2022-10-21T11:27:38.401Z,15.68
2022-10-21T11:28:38.049Z,15.70
2022-10-21T11:29:38.045Z,15.68
2022-10-21T11:30:38.032Z,15.67
2022-10-21T11:31:53.712Z,15.70
2022-10-21T11:32:37.975Z,15.72
2022-10-21T11:33:38.032Z,15.74
2022-10-21T11:34:37.949Z,15.82
2022-10-21T11:35:37.947Z,15.82
2022-10-21T11:36:37.956Z,15.82
2022-10-21T11:37:38.270Z,15.81
2022-10-21T11:38:37.919Z,15.79
2022-10-21T11:39:37.924Z,15.78
2022-10-21T11:40:37.903Z,15.75
2022-10-21T11:41:37.863Z,15.75
2022-10-21T11:42:38.165Z,15.74
2022-10-21T11:43:37.854Z,15.75
2022-10-21T11:44:37.865Z,15.75
2022-10-21T11:45:37.819Z,15.75
2022-10-21T11:46:37.813Z,15.74
2022-10-21T11:47:38.721Z,15.74
2022-10-21T11:48:37.791Z,15.76
2022-10-21T11:49:37.787Z,15.70
2022-10-21T11:50:37.784Z,15.72
2022-10-21T11:51:37.753Z,15.70
2022-10-21T11:52:38.274Z,15.74
2022-10-21T11:53:37.762Z,15.74
2022-10-21T11:54:41.763Z,15.75
2022-10-21T11:55:37.725Z,15.74
2022-10-21T11:56:37.702Z,15.72
2022-10-21T11:57:37.742Z,15.76
2022-10-21T11:58:37.676Z,15.76
2022-10-21T11:59:37.668Z,15.78
2022-10-21T12:00:37.680Z,15.78
2022-10-21T12:01:37.670Z,15.81
2022-10-21T12:02:38.032Z,15.82
2022-10-21T12:03:37.620Z,15.81
2022-10-21T12:04:37.629Z,15.81
2022-10-21T12:05:37.637Z,15.79
2022-10-21T12:06:37.604Z,15.82
2022-10-21T12:07:37.587Z,15.85
2022-10-21T12:08:41.180Z,15.86
2022-10-21T12:09:37.585Z,15.88
2022-10-21T12:10:37.550Z,15.88
2022-10-21T12:11:37.548Z,15.89
2022-10-21T12:12:37.925Z,15.88
2022-10-21T12:13:37.519Z,15.93
2022-10-21T12:14:37.518Z,15.94
2022-10-21T12:15:37.541Z,15.93
2022-10-21T12:16:37.498Z,15.92
2022-10-21T12:18:37.474Z,15.86
2022-10-21T12:19:37.439Z,15.86
2022-10-21T12:20:37.457Z,15.88
2022-10-21T12:21:37.440Z,15.88
2022-10-21T12:22:37.712Z,15.89
2022-10-21T12:23:37.395Z,15.88
2022-10-21T12:24:37.420Z,15.88
2022-10-21T12:25:37.371Z,15.88
2022-10-21T12:27:37.733Z,15.89
2022-10-21T12:28:37.370Z,15.89
2022-10-21T12:29:37.362Z,15.86
2022-10-21T12:30:37.319Z,15.85
2022-10-21T12:31:37.333Z,15.85
2022-10-21T12:32:37.334Z,15.85
2022-10-21T12:33:37.336Z,15.85
2022-10-21T12:34:43.848Z,15.82
2022-10-21T12:35:37.292Z,15.85
2022-10-21T12:36:37.251Z,15.84
2022-10-21T12:37:37.541Z,15.81
2022-10-21T12:38:37.233Z,15.82
2022-10-21T12:39:37.233Z,15.81
2022-10-21T12:40:37.204Z,15.85
2022-10-21T12:41:37.195Z,15.85
2022-10-21T12:42:37.218Z,15.85
2022-10-21T12:43:37.171Z,15.82
2022-10-21T12:44:37.207Z,15.82
2022-10-21T12:45:37.163Z,15.82
2022-10-21T12:46:39.891Z,15.84
2022-10-21T12:47:37.442Z,15.85
2022-10-21T12:48:37.117Z,15.86
2022-10-21T12:49:37.137Z,15.89
2022-10-21T12:50:37.109Z,15.93
2022-10-21T12:51:37.089Z,15.94
2022-10-21T12:52:37.078Z,15.97
2022-10-21T12:53:37.055Z,15.99
2022-10-21T12:54:37.071Z,16.03
2022-10-21T12:55:37.056Z,16.06
2022-10-21T12:56:37.023Z,16.07